Terminal Aerodrome Forecast
Issued by NWS

Home | Current Version | Previous Version | Text Only | Print | Product List | Glossary Off
Versions: 1 2 3 4 5 6 7 8 9 10 11 12 13 14 15 16 17 18 19 20 21 22 23 24 25

138
FTUS43 KLOT 160300 AAA
TAFORD
TAF AMD
KORD 160300Z 1603/1706 22010KT P6SM -SN OVC050
     FM160600 21008KT P6SM SCT040 BKN080
     FM162100 16007KT P6SM FEW150=

USA.gov is the U.S. government's official web portal to all federal, state and local government web resources and services.